TAE weather

Daegu Airport
Daegu, Daegu Gwang'yeogsi, South Korea

Public forecast

Using degrees Celsius for public forecast. Weather courtesy of forecast.io.

Current aviation weather report (METAR) for Daegu Airport

Retrieved 2019/10/24 03:00 UTC (2 minutes ago):

RKTN 240300Z 26003KT 9999 BKN030 BKN100 20/12 Q1018

Aviation forecast (TAF) for Daegu Airport

Retrieved 2019-10-24 00:00 UTC (3 hours ago):

TAF RKTN 232300Z 2400/2506 06006KT 9999 BKN040 BKN100 TX20/2406Z TN15/2421Z TEMPO 2403/2414 06008KT 4800 -RA BR BKN025 OVC080